Impacts METAR Board
IDs:

KTLH - Tallahassee Intl, FL, US

Updated at: 0900 UTC 17 Aug 2018
Potential Impact None Slight Moderate High
Time 16/21Z 16/22Z 16/23Z 17/00Z 17/01Z 17/02Z 17/03Z 17/04Z 17/05Z 17/06Z 17/07Z 17/08Z 17/09Z
Temp82 80 81 81 79 79 79 78 77 77 76 76 76
Dewpt75 76 74 77 77 76 77 76 75 76 75 75 75
Altim30.13 30.15 30.14 30.15 30.16 30.15 30.17 30.18 30.19 30.17 30.15 30.15 30.14
VIS10 6 10 10 10 10 10 10 10 10 10 10 10
CIG250 250 250 250 250 250 250 -- -- -- -- 4 --
CoverOVCOVCOVCOVCOVCOVCBKNCLRCLRCLRCLRBKNSCT
FltCatVFRVFRVFRVFRVFRVFRVFRVFRVFRVFRVFRLIFRVFR
WX---RA----------------------
WDir2903000250000031001001000
WSpd8 4 0 3 0 0 0 0 3 0 5 5 0
WGst-- -- -- -- -- -- -- -- -- -- -- -- --
Raw hourly METARs
KTLH 162053Z COR 29008KT 10SM FEW033CB OVC250 28/24 A3013 RMK AO2 SLP203 CB S-W STNRY VCSH S-W T02780239 56006
KTLH 162153Z 30004KT 6SM -RA FEW018 SCT049CB OVC250 27/24 A3015 RMK AO2 RAB32 SLP208 CB NE MOV N TCU S-W P0009 T02670244
KTLH 162253Z 00000KT 10SM FEW090 OVC250 27/23 A3014 RMK AO2 LTG DSNT SW AND W RAE15 SLP205 CB DSNT SW-W P0000 T02720233
KTLH 162353Z 25003KT 10SM FEW100 OVC250 27/25 A3015 RMK AO2 SLP207 CB DSNT W 60009 T02720250 10328 20267 51004
KTLH 170053Z 00000KT 10SM OVC250 26/25 A3016 RMK AO2 SLP211 TCU DSNT W T02610250
KTLH 170153Z 00000KT 10SM OVC250 26/24 A3015 RMK AO2 SLP208 T02610244
KTLH 170253Z 00000KT 10SM BKN250 26/25 A3017 RMK AO2 SLP214 LAST T02610250 53006
KTLH 170353Z AUTO 00000KT 10SM CLR 26/24 A3018 RMK AO2 SLP219 T02560244
KTLH 170453Z AUTO 31003KT 10SM CLR 25/24 A3019 RMK AO2 SLP222 T02500239 403280239
KTLH 170553Z AUTO 00000KT 10SM CLR 25/24 A3017 RMK AO2 SLP215 T02500244 10272 20250 50001
KTLH 170653Z AUTO 10005KT 10SM CLR 24/24 A3015 RMK AO2 SLP208 T02440239
KTLH 170805Z AUTO 10005KT 10SM BKN004 24/24 A3015 RMK AO2 T02440239
KTLH 170853Z AUTO 00000KT 10SM SCT003 SCT022 24/24 A3014 RMK AO2 SLP205 T02440239 56010



Page loaded:  09:32 UTC  |   02:32 AM Pacific  |   03:32 AM Mountain  |   04:32 AM Central  |   05:32 AM Eastern

 

ADVISORIES

FORECASTS

FORECASTS

OBSERVATIONS

USER TOOLS

ABOUT US